Time;durP1;ratioP1;P1;durP2;ratioP2;P2;SDS_P1;SDS_P2;PMS_P1;PMS_P2;Temp;Humidity;BMP_temperature;BMP_pressure;BME280_temperature;BME280_humidity;BME280_pressure;Samples;Min_cycle;Max_cycle;Signal;HPM_P1;HPM_P2
2023/06/22 00:01:04;;;;;;;7.78;5.38;;;;;;;23.10;68.63;101429.69;4977396;28;20033;-81
2023/06/22 00:03:29;;;;;;;8.07;5.72;;;;;;;23.17;68.95;101441.38;4993710;28;20400;-81
2023/06/22 00:05:56;;;;;;;7.50;5.72;;;;;;;23.02;69.46;101436.66;5009785;28;20030;-80
2023/06/22 00:08:21;;;;;;;6.88;5.05;;;;;;;22.94;69.45;101439.97;4993187;28;20026;-80
2023/06/22 00:10:47;;;;;;;7.07;5.35;;;;;;;22.85;69.22;101436.31;4993511;28;20103;-80
2023/06/22 00:13:12;;;;;;;7.00;5.55;;;;;;;22.90;69.29;101449.94;4993605;28;20031;-80
2023/06/22 00:15:39;;;;;;;7.25;5.38;;;;;;;22.85;69.70;101453.94;4993371;28;20053;-80
2023/06/22 00:18:06;;;;;;;8.90;5.03;;;;;;;22.74;69.87;101432.94;4977140;28;20036;-81
2023/06/22 00:20:32;;;;;;;8.73;5.25;;;;;;;22.65;70.76;101442.47;4993165;28;20041;-80
2023/06/22 00:22:58;;;;;;;10.25;5.40;;;;;;;22.71;70.11;101438.44;4976654;28;20041;-80
2023/06/22 00:25:23;;;;;;;6.38;4.80;;;;;;;22.56;69.26;101420.38;4993360;28;20026;-80
2023/06/22 00:27:49;;;;;;;8.80;5.50;;;;;;;22.51;69.87;101422.56;5009314;28;20507;-80
2023/06/22 00:30:18;;;;;;;7.75;5.25;;;;;;;22.60;69.83;101447.28;5009391;28;20030;-80
2023/06/22 00:32:44;;;;;;;7.88;5.45;;;;;;;22.63;69.44;101435.66;4993094;28;20026;-80
2023/06/22 00:35:10;;;;;;;6.57;5.28;;;;;;;22.51;69.12;101435.75;4993151;28;20038;-81
2023/06/22 00:37:36;;;;;;;7.18;5.20;;;;;;;22.42;69.33;101451.53;4992618;28;20432;-81
2023/06/22 00:40:03;;;;;;;9.95;5.07;;;;;;;22.39;70.12;101465.81;5009551;28;20555;-80
2023/06/22 00:42:29;;;;;;;7.82;5.70;;;;;;;22.46;70.23;101464.31;5009176;28;20496;-80
2023/06/22 00:44:54;;;;;;;10.18;5.70;;;;;;;22.42;70.31;101465.56;4993030;28;20026;-80
2023/06/22 00:47:20;;;;;;;12.02;4.97;;;;;;;22.56;69.85;101473.13;5009246;28;20030;-80
2023/06/22 00:49:46;;;;;;;8.73;5.22;;;;;;;22.50;69.46;101478.91;4992477;28;20050;-80
2023/06/22 00:52:20;;;;;;;7.55;5.50;;;;;;;22.49;69.42;101485.13;4992500;28;20034;-80
2023/06/22 00:54:48;;;;;;;7.57;5.68;;;;;;;22.44;69.55;101484.72;4992685;28;20117;-80
2023/06/22 00:57:15;;;;;;;7.03;5.30;;;;;;;22.41;69.77;101484.97;5008568;28;20026;-80
2023/06/22 00:59:45;;;;;;;10.95;5.50;;;;;;;22.28;69.63;101479.06;4991743;28;20125;-80
2023/06/22 01:02:10;;;;;;;7.00;5.20;;;;;;;22.22;70.10;101479.56;5009057;28;20023;-80
2023/06/22 01:04:36;;;;;;;8.07;5.43;;;;;;;22.32;70.24;101485.78;4992690;28;20052;-80
2023/06/22 01:07:23;;;;;;;8.18;5.88;;;;;;;22.34;70.25;101483.84;5008844;28;20033;-80
2023/06/22 01:10:11;;;;;;;8.00;6.15;;;;;;;22.24;70.39;101469.75;4992496;28;20389;-80
2023/06/22 01:13:01;;;;;;;9.50;5.88;;;;;;;22.17;71.04;101476.50;4976297;28;20507;-80
2023/06/22 01:15:32;;;;;;;9.40;6.05;;;;;;;22.09;71.06;101461.34;5008957;28;20385;-80
2023/06/22 01:17:58;;;;;;;9.23;6.03;;;;;;;21.98;71.45;101467.47;4992330;28;20476;-80
2023/06/22 01:20:24;;;;;;;7.70;5.30;;;;;;;21.86;72.49;101468.50;4992023;28;20088;-81
2023/06/22 01:23:20;;;;;;;9.40;5.85;;;;;;;21.88;72.96;101466.56;4992302;28;20034;-80
2023/06/22 01:25:57;;;;;;;6.88;5.38;;;;;;;21.73;72.82;101452.06;4993612;28;20030;-80
2023/06/22 01:28:53;;;;;;;8.45;5.57;;;;;;;21.70;73.48;101457.56;5008233;28;20038;-81
2023/06/22 01:31:20;;;;;;;8.85;5.70;;;;;;;21.67;73.75;101465.72;4983437;28;20038;-80
2023/06/22 01:33:48;;;;;;;8.77;5.90;;;;;;;21.69;74.08;101467.25;5008374;28;20038;-81
2023/06/22 01:36:14;;;;;;;7.50;5.53;;;;;;;21.75;74.36;101458.03;4975429;28;20030;-80
2023/06/22 01:38:39;;;;;;;9.40;5.82;;;;;;;21.74;74.36;101470.38;5008264;28;20026;-80
2023/06/22 01:41:05;;;;;;;8.73;6.25;;;;;;;21.62;74.92;101449.47;4991738;28;20030;-81
2023/06/22 01:43:31;;;;;;;9.48;6.13;;;;;;;21.70;74.73;101455.75;4975778;28;20034;-80
2023/06/22 01:45:57;;;;;;;8.65;6.20;;;;;;;21.70;74.83;101470.72;5007932;28;20031;-80
2023/06/22 01:48:22;;;;;;;8.65;6.15;;;;;;;21.74;74.92;101464.25;5010953;28;20538;-80
2023/06/22 01:50:48;;;;;;;10.60;5.72;;;;;;;21.71;74.96;101475.88;4994783;28;20029;-79
2023/06/22 01:53:13;;;;;;;8.20;5.90;;;;;;;21.68;75.29;101459.50;4995224;28;20480;-80
2023/06/22 01:55:39;;;;;;;9.52;6.32;;;;;;;21.71;75.23;101480.31;4994737;28;20026;-80
2023/06/22 01:58:04;;;;;;;9.90;6.05;;;;;;;21.68;75.44;101483.19;5012243;28;20442;-80
2023/06/22 02:00:32;;;;;;;8.90;5.97;;;;;;;21.62;76.05;101488.94;4994539;28;20029;-79
2023/06/22 02:03:26;;;;;;;12.20;6.28;;;;;;;21.73;75.89;101499.47;4994535;28;20048;-80
2023/06/22 02:05:55;;;;;;;9.10;6.25;;;;;;;21.69;74.79;101504.13;4992861;28;20042;-81
2023/06/22 02:08:22;;;;;;;9.43;5.57;;;;;;;21.62;74.47;101497.69;4994593;28;20443;-80
2023/06/22 02:10:48;;;;;;;11.30;5.78;;;;;;;21.59;74.41;101497.94;4978338;28;20030;-80
2023/06/22 02:13:14;;;;;;;8.20;6.22;;;;;;;21.70;74.26;101510.22;4994573;28;20026;-80
2023/06/22 02:15:39;;;;;;;9.55;6.18;;;;;;;21.68;73.76;101505.09;4994343;28;20033;-80
2023/06/22 02:18:05;;;;;;;8.90;6.25;;;;;;;21.57;73.15;101496.41;4994521;28;20566;-80
2023/06/22 02:20:30;;;;;;;13.80;6.13;;;;;;;21.61;73.86;101514.44;4994093;28;20030;-80
2023/06/22 02:22:56;;;;;;;9.18;6.18;;;;;;;21.57;73.53;101505.13;4994525;28;20502;-80
2023/06/22 02:25:21;;;;;;;7.90;5.90;;;;;;;21.53;73.60;101510.75;4994306;28;20388;-80
2023/06/22 02:27:47;;;;;;;8.50;6.15;;;;;;;21.59;73.73;101518.19;4994367;28;20030;-80
2023/06/22 02:30:14;;;;;;;9.25;6.60;;;;;;;21.42;74.03;101506.38;4994217;28;20415;-80
2023/06/22 02:32:43;;;;;;;9.13;5.95;;;;;;;21.40;74.19;101509.13;4994732;28;20028;-80
2023/06/22 02:35:09;;;;;;;9.40;6.45;;;;;;;21.38;74.80;101511.06;4994667;28;20802;-80
2023/06/22 02:37:38;;;;;;;10.57;7.30;;;;;;;21.43;75.00;101514.16;4994122;28;20034;-80
2023/06/22 02:40:08;;;;;;;10.05;6.93;;;;;;;21.46;75.13;101515.72;4977859;28;20022;-80
2023/06/22 02:42:34;;;;;;;15.23;7.82;;;;;;;21.35;75.39;101507.84;4994224;28;20022;-80
2023/06/22 02:45:00;;;;;;;13.65;8.63;;;;;;;21.30;75.77;101508.19;4993983;28;20030;-80
2023/06/22 02:47:26;;;;;;;16.40;8.80;;;;;;;21.26;76.92;101513.81;4993396;28;20488;-80
2023/06/22 02:49:51;;;;;;;14.15;8.88;;;;;;;21.25;76.90;101515.59;4993567;28;20077;-81
2023/06/22 02:52:17;;;;;;;13.65;8.57;;;;;;;21.30;76.75;101531.06;4993638;28;20064;-81
2023/06/22 02:54:45;;;;;;;14.25;8.43;;;;;;;21.39;76.35;101522.41;4993901;28;20037;-82
2023/06/22 02:57:13;;;;;;;9.15;5.10;;;;;;;21.71;74.95;101523.28;5009979;28;20026;-81
2023/06/22 02:59:40;;;;;;;11.82;7.85;;;;;;;21.87;73.82;101507.06;4993688;28;20040;-82
2023/06/22 03:02:06;;;;;;;17.63;9.60;;;;;;;22.32;71.88;101527.94;4993639;28;20033;-81
2023/06/22 03:04:31;;;;;;;12.35;7.97;;;;;;;22.45;70.82;101520.66;4993428;28;20030;-81
2023/06/22 03:07:01;;;;;;;9.75;7.80;;;;;;;22.74;70.03;101530.53;4977435;28;20030;-82
2023/06/22 03:09:27;;;;;;;14.15;9.02;;;;;;;22.92;68.83;101518.41;5010013;28;20037;-81
2023/06/22 03:11:53;;;;;;;20.92;12.07;;;;;;;22.73;69.87;101527.06;4993605;28;20562;-82
2023/06/22 03:14:18;;;;;;;26.60;12.50;;;;;;;22.43;71.14;101530.50;4993485;28;20033;-81
2023/06/22 03:16:44;;;;;;;18.50;12.00;;;;;;;22.23;71.52;101529.56;4977200;28;20492;-82
2023/06/22 03:19:09;;;;;;;16.38;12.43;;;;;;;22.05;73.44;101523.97;4993466;28;20389;-82
2023/06/22 03:21:38;;;;;;;21.25;11.35;;;;;;;21.99;74.01;101521.84;4977324;28;20537;-81
2023/06/22 03:24:04;;;;;;;28.05;17.88;;;;;;;22.10;73.31;101528.06;4977271;28;20029;-82
2023/06/22 03:26:29;;;;;;;29.88;21.08;;;;;;;22.09;73.55;101514.03;4977304;28;20407;-81
2023/06/22 03:28:55;;;;;;;27.55;21.70;;;;;;;21.99;73.47;101508.66;4977265;28;20526;-82
2023/06/22 03:31:21;;;;;;;36.15;22.55;;;;;;;21.91;73.88;101507.63;4973757;28;20522;-83
2023/06/22 03:33:50;;;;;;;31.58;20.83;;;;;;;21.93;74.25;101500.47;5012021;28;20057;-84
2023/06/22 03:36:18;;;;;;;29.23;20.77;;;;;;;21.95;73.99;101503.78;5029166;28;20033;-83
2023/06/22 03:38:45;;;;;;;30.48;19.60;;;;;;;21.96;74.66;101514.19;5029046;28;20033;-85
2023/06/22 03:41:11;;;;;;;24.77;16.80;;;;;;;21.73;74.93;101488.94;5012191;28;20025;-84
2023/06/22 03:43:36;;;;;;;22.67;16.80;;;;;;;21.93;74.06;101514.47;5012609;28;20033;-83
2023/06/22 03:46:02;;;;;;;28.67;16.60;;;;;;;22.04;73.87;101503.88;4996192;28;20037;-83
2023/06/22 03:48:27;;;;;;;25.50;16.13;;;;;;;22.26;72.64;101496.81;5012543;28;20107;-83
2023/06/22 03:50:53;;;;;;;21.88;15.23;;;;;;;22.34;72.48;101507.56;5012807;28;20025;-84
2023/06/22 03:53:18;;;;;;;17.08;12.50;;;;;;;22.28;72.68;101513.34;5012316;28;20505;-83
2023/06/22 03:55:53;;;;;;;15.10;10.93;;;;;;;22.36;72.46;101529.34;5012461;28;20440;-82
2023/06/22 03:58:19;;;;;;;17.77;10.32;;;;;;;22.19;73.20;101519.38;5012474;28;20484;-84
2023/06/22 04:00:46;;;;;;;13.75;9.07;;;;;;;22.28;72.49;101532.63;5011912;28;20018;-84
2023/06/22 04:03:12;;;;;;;18.25;9.80;;;;;;;22.21;72.34;101525.34;4996122;28;20037;-85
2023/06/22 04:05:39;;;;;;;23.83;15.43;;;;;;;22.45;72.10;101540.91;5012248;28;20030;-85
2023/06/22 04:08:05;;;;;;;21.70;11.45;;;;;;;22.30;72.18;101543.88;5029034;28;20100;-84
2023/06/22 04:10:30;;;;;;;17.95;9.38;;;;;;;22.31;71.81;101542.06;5012476;28;20052;-84
2023/06/22 04:12:56;;;;;;;15.35;8.27;;;;;;;22.22;72.46;101538.44;5012583;28;20471;-85
2023/06/22 04:15:21;;;;;;;12.20;7.35;;;;;;;22.05;72.15;101538.94;5010259;28;20037;-85
2023/06/22 04:17:47;;;;;;;12.57;7.10;;;;;;;21.86;73.18;101526.47;5011711;28;20076;-87
2023/06/22 04:20:12;;;;;;;15.57;7.55;;;;;;;21.90;73.67;101551.56;5030529;28;20041;-92
2023/06/22 04:22:38;;;;;;;13.90;7.25;;;;;;;21.91;73.46;101550.59;4993720;28;20037;-88
2023/06/22 04:25:03;;;;;;;11.82;6.93;;;;;;;21.78;73.55;101528.88;5024096;28;20494;-87
2023/06/22 04:27:29;;;;;;;13.02;7.63;;;;;;;21.87;73.98;101546.56;5015240;28;20505;-88
2023/06/22 04:29:54;;;;;;;14.20;7.05;;;;;;;21.95;73.63;101548.59;5016056;28;20029;-89
2023/06/22 04:32:20;;;;;;;11.65;7.25;;;;;;;21.98;73.03;101561.50;5012349;28;20025;-93
2023/06/22 04:34:45;;;;;;;12.05;7.88;;;;;;;21.91;73.93;101570.84;5023510;28;20581;-92
2023/06/22 04:37:15;;;;;;;15.35;8.93;;;;;;;21.96;73.65;101585.34;4997904;28;20125;-89
2023/06/22 04:39:43;;;;;;;14.05;7.50;;;;;;;21.90;73.80;101593.72;4997931;28;20030;-93
2023/06/22 04:42:08;;;;;;;10.23;7.70;;;;;;;21.88;74.11;101593.03;5042749;23;20058;-87
2023/06/22 04:44:33;;;;;;;19.13;10.73;;;;;;;21.81;75.02;101596.25;5014992;28;20025;-89
2023/06/22 04:47:02;;;;;;;12.23;8.02;;;;;;;21.73;75.53;101589.00;5003991;28;20030;-86
2023/06/22 04:49:35;;;;;;;13.10;8.13;;;;;;;21.95;75.20;101594.19;5023714;28;20112;-92
2023/06/22 04:52:02;;;;;;;13.32;8.43;;;;;;;21.88;75.23;101585.13;5035260;28;20025;-91
2023/06/22 04:54:27;;;;;;;14.02;8.43;;;;;;;21.82;75.84;101592.66;5015693;28;20057;-90
2023/06/22 04:57:02;;;;;;;14.05;7.72;;;;;;;21.88;76.14;101605.34;5032048;28;20562;-91
2023/06/22 04:59:29;;;;;;;13.73;8.80;;;;;;;21.92;75.87;101610.22;5021447;28;20056;-88
2023/06/22 05:01:55;;;;;;;13.18;7.78;;;;;;;22.30;74.20;101599.22;5003205;28;20121;-90
2023/06/22 05:04:23;;;;;;;15.95;8.55;;;;;;;22.20;74.39;101605.38;5025852;28;20036;-92
2023/06/22 05:06:48;;;;;;;12.35;7.68;;;;;;;22.17;74.41;101608.28;5023332;28;20103;-91
2023/06/22 05:09:14;;;;;;;12.30;7.90;;;;;;;22.12;74.93;101613.06;5015763;28;20026;-92
2023/06/22 05:11:39;;;;;;;11.15;7.70;;;;;;;22.12;75.23;101615.72;5033855;28;20036;-89
2023/06/22 05:14:05;;;;;;;11.10;8.13;;;;;;;22.12;76.11;101631.53;5017765;28;20076;-91
2023/06/22 05:16:30;;;;;;;12.80;8.27;;;;;;;22.12;75.50;101627.09;5016520;28;20475;-89
2023/06/22 05:18:55;;;;;;;14.05;8.00;;;;;;;22.14;75.60;101611.19;5029118;28;20033;-88
2023/06/22 05:21:26;;;;;;;13.10;8.93;;;;;;;22.15;76.31;101620.75;5029210;28;20032;-88
2023/06/22 05:23:52;;;;;;;12.80;9.38;;;;;;;22.13;76.10;101612.16;5017593;28;20124;-90
2023/06/22 05:26:18;;;;;;;15.70;9.23;;;;;;;22.15;76.79;101616.31;5030193;28;20013;-87
2023/06/22 05:28:47;;;;;;;18.55;9.70;;;;;;;22.25;75.74;101627.78;5030635;28;20029;-87
2023/06/22 05:31:14;;;;;;;13.82;8.35;;;;;;;22.30;76.12;101635.28;5011183;28;20184;-87
2023/06/22 05:33:40;;;;;;;14.73;9.25;;;;;;;22.31;75.86;101629.06;5002299;28;20128;-88
2023/06/22 05:36:05;;;;;;;12.13;8.77;;;;;;;22.38;76.18;101627.59;5011729;28;20030;-91
2023/06/22 05:38:31;;;;;;;13.65;8.73;;;;;;;22.46;76.31;101629.59;5047953;28;20167;-88
2023/06/22 05:40:56;;;;;;;17.13;9.80;;;;;;;22.43;77.26;101629.84;5032102;28;20042;-90
2023/06/22 05:43:22;;;;;;;21.08;9.70;;;;;;;22.60;76.73;101627.47;5027340;28;20041;-89
2023/06/22 05:45:47;;;;;;;17.67;9.75;;;;;;;22.71;76.65;101617.81;5026485;28;20487;-91
2023/06/22 05:48:13;;;;;;;15.13;9.35;;;;;;;22.90;75.98;101607.41;5030482;28;20064;-92
2023/06/22 05:50:38;;;;;;;15.23;10.05;;;;;;;23.09;74.89;101612.78;5045991;28;20017;-92
2023/06/22 05:53:04;;;;;;;17.30;10.43;;;;;;;23.13;74.77;101608.91;5039776;28;20045;-92
2023/06/22 05:55:29;;;;;;;15.00;10.15;;;;;;;23.24;73.95;101609.78;5046491;28;20029;-90
2023/06/22 05:57:55;;;;;;;21.73;10.65;;;;;;;23.35;72.72;101612.31;5025792;28;20026;-89
2023/06/22 06:00:21;;;;;;;16.00;10.90;;;;;;;23.58;72.40;101608.47;4990396;28;20025;-87
2023/06/22 06:02:49;;;;;;;18.58;9.98;;;;;;;23.57;72.51;101601.53;5030035;28;20116;-87
2023/06/22 06:05:14;;;;;;;14.10;9.60;;;;;;;23.75;70.84;101594.66;5040499;28;20104;-91
2023/06/22 06:07:41;;;;;;;12.68;9.10;;;;;;;23.81;69.46;101601.22;5014488;28;20459;-90
2023/06/22 06:10:07;;;;;;;14.68;9.68;;;;;;;23.95;69.26;101613.19;5002299;28;20026;-87
2023/06/22 06:12:32;;;;;;;15.05;9.93;;;;;;;23.95;68.64;101618.47;5026114;28;20028;-91
2023/06/22 06:14:58;;;;;;;14.43;9.27;;;;;;;24.11;68.22;101618.75;5012929;28;20042;-89
2023/06/22 06:17:23;;;;;;;16.45;9.65;;;;;;;24.25;66.21;101620.13;5031714;28;20029;-86
2023/06/22 06:19:49;;;;;;;13.35;9.00;;;;;;;24.29;65.11;101624.19;5023369;28;20034;-92
2023/06/22 06:22:14;;;;;;;12.63;8.77;;;;;;;24.11;63.84;101625.84;5028704;28;20029;-89
2023/06/22 06:24:40;;;;;;;12.25;8.15;;;;;;;23.93;64.44;101607.19;5019736;28;20033;-89
2023/06/22 06:27:05;;;;;;;12.65;8.68;;;;;;;23.99;65.39;101603.97;5025806;28;20040;-88
2023/06/22 06:29:34;;;;;;;14.73;10.70;;;;;;;24.26;66.98;101600.66;5026156;28;20049;-89
2023/06/22 06:31:59;;;;;;;14.20;9.50;;;;;;;24.38;63.40;101601.34;5025337;28;20180;-90
2023/06/22 06:34:25;;;;;;;12.00;8.52;;;;;;;24.39;62.88;101597.75;5011930;28;20072;-90
2023/06/22 06:36:50;;;;;;;10.70;7.80;;;;;;;24.37;61.96;101587.31;5010271;28;20550;-89
2023/06/22 06:39:16;;;;;;;14.75;9.40;;;;;;;24.56;62.26;101589.09;4997795;28;20029;-91
2023/06/22 06:41:41;;;;;;;12.32;8.57;;;;;;;24.59;61.65;101584.38;5010714;28;20062;-88
2023/06/22 06:44:07;;;;;;;15.73;8.60;;;;;;;24.59;62.25;101584.38;5028236;28;20057;-89
2023/06/22 06:46:32;;;;;;;14.68;8.40;;;;;;;24.71;64.00;101574.44;5025318;28;20061;-88
2023/06/22 06:48:58;;;;;;;13.02;9.30;;;;;;;24.91;62.36;101577.03;5030494;28;20029;-85
2023/06/22 06:51:23;;;;;;;12.55;8.82;;;;;;;24.95;62.68;101584.50;5007616;28;20124;-91
2023/06/22 06:53:49;;;;;;;13.25;9.30;;;;;;;25.06;62.88;101588.81;5028924;28;20045;-91
2023/06/22 06:56:14;;;;;;;13.30;8.73;;;;;;;25.20;61.67;101588.34;5028553;28;20079;-87
2023/06/22 06:58:45;;;;;;;14.18;8.82;;;;;;;25.24;62.77;101594.19;5029485;28;20033;-91
2023/06/22 07:01:11;;;;;;;12.30;8.98;;;;;;;25.24;61.88;101594.19;5030859;28;20076;-88
2023/06/22 07:03:37;;;;;;;14.35;8.82;;;;;;;25.41;61.35;101607.47;5020031;28;20098;-92
2023/06/22 07:06:02;;;;;;;11.80;8.63;;;;;;;25.35;61.00;101607.22;5031542;28;20073;-92
2023/06/22 07:08:28;;;;;;;15.45;9.40;;;;;;;25.52;60.87;101598.47;5013684;28;20056;-90
2023/06/22 07:10:54;;;;;;;13.45;8.68;;;;;;;25.65;59.31;101608.72;5019867;28;20422;-90
2023/06/22 07:13:19;;;;;;;14.70;8.90;;;;;;;25.75;61.22;101609.50;5017163;28;20062;-87
2023/06/22 07:15:45;;;;;;;14.35;9.23;;;;;;;25.88;59.39;101604.69;5042522;28;20415;-90
2023/06/22 07:18:10;;;;;;;13.80;10.38;;;;;;;25.91;58.31;101599.09;5011806;28;20084;-88
2023/06/22 07:20:36;;;;;;;14.45;10.07;;;;;;;26.08;58.42;101607.19;5018584;28;20037;-85
2023/06/22 07:23:01;;;;;;;12.63;9.57;;;;;;;26.06;59.05;101598.56;5017343;28;20104;-88
2023/06/22 07:25:27;;;;;;;12.35;9.25;;;;;;;26.14;58.48;101615.34;5021570;28;20030;-89
2023/06/22 07:27:57;;;;;;;15.82;9.20;;;;;;;26.21;59.79;101610.28;5004096;28;20522;-90
2023/06/22 07:30:23;;;;;;;12.35;9.00;;;;;;;26.25;59.58;101612.50;5033080;28;20068;-89
2023/06/22 07:32:48;;;;;;;12.00;8.88;;;;;;;26.27;59.80;101617.63;5030614;28;20026;-92
2023/06/22 07:35:16;;;;;;;11.90;9.07;;;;;;;26.42;60.17;101609.97;5024362;28;20104;-88
2023/06/22 07:37:41;;;;;;;11.77;8.95;;;;;;;26.42;57.42;101605.50;5009051;28;20038;-88
2023/06/22 07:40:07;;;;;;;12.77;8.82;;;;;;;26.42;56.65;101594.06;5028150;28;20112;-89
2023/06/22 07:42:33;;;;;;;11.93;8.98;;;;;;;26.49;56.60;101597.75;5023569;28;20029;-90
2023/06/22 07:44:58;;;;;;;12.90;8.45;;;;;;;26.40;55.74;101573.00;5022802;28;20076;-89
2023/06/22 07:47:26;;;;;;;12.45;8.27;;;;;;;26.54;55.22;101583.03;5008584;28;20488;-92
2023/06/22 07:49:54;;;;;;;13.20;8.25;;;;;;;26.63;55.95;101588.41;4999520;28;20061;-90
2023/06/22 07:52:20;;;;;;;12.07;9.35;;;;;;;26.62;56.96;101582.25;5005580;28;20060;-93
2023/06/22 07:54:46;;;;;;;12.18;9.32;;;;;;;26.57;57.89;101579.25;5019965;28;20037;-87
2023/06/22 07:57:11;;;;;;;11.65;9.10;;;;;;;26.69;56.49;101588.59;5016851;28;20029;-91
2023/06/22 07:59:38;;;;;;;12.80;8.73;;;;;;;26.82;55.36;101598.78;5018727;28;20025;-90
2023/06/22 08:02:03;;;;;;;12.88;9.25;;;;;;;27.00;55.23;101602.22;4996129;28;20033;-89
2023/06/22 08:04:30;;;;;;;12.68;9.25;;;;;;;27.06;54.24;101598.13;4999499;28;20026;-90
2023/06/22 08:06:56;;;;;;;15.20;9.40;;;;;;;26.94;54.16;101592.25;5044289;28;20037;-92
2023/06/22 08:09:21;;;;;;;12.02;8.85;;;;;;;26.98;55.24;101585.63;5014004;28;20492;-89
2023/06/22 08:11:48;;;;;;;11.93;9.20;;;;;;;27.16;53.90;101596.19;5017158;28;20096;-90
2023/06/22 08:14:14;;;;;;;18.50;10.88;;;;;;;27.22;54.61;101576.94;5032275;28;20068;-89
2023/06/22 08:16:40;;;;;;;14.20;10.52;;;;;;;27.46;54.68;101586.00;5015196;28;20033;-87
2023/06/22 08:19:05;;;;;;;13.10;9.18;;;;;;;27.58;54.54;101582.03;5047723;28;20423;-87
2023/06/22 08:21:31;;;;;;;12.38;9.15;;;;;;;27.68;54.41;101588.06;5038070;28;20030;-93
2023/06/22 08:23:57;;;;;;;12.85;8.60;;;;;;;27.86;54.52;101601.22;5017556;28;20074;-90
2023/06/22 08:26:25;;;;;;;16.52;8.93;;;;;;;27.95;54.07;101602.91;5019678;28;20026;-92
2023/06/22 08:29:07;;;;;;;12.45;8.48;;;;;;;27.72;53.56;101566.28;5033953;28;20029;-93
2023/06/22 08:31:34;;;;;;;11.67;8.83;;;;;;;27.79;52.97;101592.22;5031706;28;20026;-92
2023/06/22 08:33:59;;;;;;;11.43;9.23;;;;;;;27.77;53.85;101580.94;5031172;28;20272;-88
2023/06/22 08:36:25;;;;;;;11.73;9.27;;;;;;;27.93;53.41;101599.56;5046841;28;20033;-89
2023/06/22 08:38:51;;;;;;;15.57;9.25;;;;;;;27.84;52.77;101579.28;5031051;28;20033;-87
2023/06/22 08:41:19;;;;;;;15.82;9.88;;;;;;;27.93;53.07;101588.94;5032084;28;20487;-89
2023/06/22 08:43:45;;;;;;;14.38;9.43;;;;;;;28.02;53.64;101593.22;5048456;28;20087;-91
2023/06/22 08:46:13;;;;;;;11.88;9.05;;;;;;;27.78;52.89;101595.88;5012578;28;20034;-89
2023/06/22 08:48:39;;;;;;;11.82;9.73;;;;;;;27.71;53.02;101595.69;5029332;28;20503;-89
2023/06/22 08:51:04;;;;;;;10.35;8.90;;;;;;;27.71;53.27;101591.22;5016988;28;20050;-92
2023/06/22 08:53:30;;;;;;;12.50;9.75;;;;;;;27.85;52.98;101570.31;5031387;28;20419;-91
2023/06/22 08:55:55;;;;;;;12.25;9.10;;;;;;;27.93;53.08;101573.81;5027455;28;20029;-88
2023/06/22 08:58:21;;;;;;;10.90;8.57;;;;;;;27.83;53.55;101572.31;5030111;28;20501;-87
2023/06/22 09:00:47;;;;;;;11.35;8.85;;;;;;;27.81;53.71;101571.63;5027518;28;20495;-89
2023/06/22 09:03:13;;;;;;;14.88;8.85;;;;;;;27.78;53.54;101579.94;5027541;28;20479;-91
2023/06/22 09:05:38;;;;;;;11.80;9.07;;;;;;;27.97;53.31;101575.13;5014847;28;20078;-91
2023/06/22 09:08:04;;;;;;;12.65;8.73;;;;;;;28.05;53.50;101571.66;5031377;28;20041;-91
2023/06/22 09:10:29;;;;;;;13.88;9.10;;;;;;;28.20;53.43;101575.28;5027466;28;20036;-87
2023/06/22 09:12:55;;;;;;;12.07;8.70;;;;;;;28.32;52.30;101572.31;5010280;28;20087;-87
2023/06/22 09:15:20;;;;;;;11.10;9.10;;;;;;;28.33;51.85;101569.50;5011059;28;20087;-90
2023/06/22 09:17:46;;;;;;;13.20;8.90;;;;;;;28.49;52.43;101573.94;5014088;28;20491;-90
2023/06/22 09:20:12;;;;;;;12.02;8.77;;;;;;;28.65;50.85;101573.94;5013487;28;20104;-93
2023/06/22 09:22:37;;;;;;;12.02;8.32;;;;;;;28.72;51.53;101569.59;5020065;28;20384;-86
2023/06/22 09:25:03;;;;;;;11.90;8.30;;;;;;;28.79;50.78;101562.56;5031012;28;20026;-88
2023/06/22 09:27:29;;;;;;;14.60;9.15;;;;;;;28.98;50.17;101568.53;5013161;28;20548;-92
2023/06/22 09:29:54;;;;;;;18.88;9.98;;;;;;;29.06;51.02;101556.00;5029550;28;21023;-86
2023/06/22 09:32:19;;;;;;;14.55;10.00;;;;;;;29.15;50.50;101551.47;5013338;28;20034;-92
2023/06/22 09:34:45;;;;;;;16.83;12.35;;;;;;;29.30;50.07;101548.88;5012333;28;20037;-89
2023/06/22 09:37:10;;;;;;;13.38;9.27;;;;;;;29.29;50.26;101541.88;5006738;28;20034;-89
2023/06/22 09:39:36;;;;;;;13.63;8.95;;;;;;;29.47;50.30;101561.09;5020791;28;20489;-88
2023/06/22 09:42:02;;;;;;;11.18;8.57;;;;;;;29.32;50.43;101541.56;5015778;28;20074;-89
2023/06/22 09:44:27;;;;;;;14.93;8.77;;;;;;;29.31;50.31;101532.72;5013917;28;20036;-91
2023/06/22 09:46:53;;;;;;;10.85;8.88;;;;;;;29.39;50.32;101547.81;5014492;28;20107;-91
2023/06/22 09:49:18;;;;;;;13.68;9.00;;;;;;;29.52;50.92;101550.78;5011233;28;20030;-92
2023/06/22 09:51:44;;;;;;;10.57;8.82;;;;;;;29.62;51.04;101553.22;5012091;28;20484;-89
2023/06/22 09:54:09;;;;;;;11.10;8.82;;;;;;;29.80;50.77;101561.75;5013248;28;20030;-90
2023/06/22 09:56:35;;;;;;;13.30;9.40;;;;;;;29.85;49.70;101567.38;5017554;28;20514;-90
2023/06/22 09:59:00;;;;;;;14.30;9.02;;;;;;;29.87;49.37;101562.69;5029567;28;20044;-90
2023/06/22 10:01:25;;;;;;;14.35;9.15;;;;;;;29.86;49.63;101566.34;5012877;28;20088;-93
2023/06/22 10:03:54;;;;;;;14.27;9.90;;;;;;;29.81;49.73;101575.91;5010731;28;20025;-92
2023/06/22 10:06:20;;;;;;;12.30;9.32;;;;;;;29.83;50.20;101565.91;5032785;28;20032;-94
2023/06/22 10:08:45;;;;;;;13.80;9.80;;;;;;;29.81;50.28;101575.91;5029007;28;20026;-89
2023/06/22 10:11:11;;;;;;;11.68;9.13;;;;;;;29.94;50.12;101570.81;5023023;28;20030;-92
2023/06/22 10:13:36;;;;;;;12.68;9.02;;;;;;;29.87;49.01;101565.34;5034634;28;20228;-91
2023/06/22 10:16:01;;;;;;;11.63;8.88;;;;;;;29.90;48.83;101570.34;5016059;28;20033;-91
2023/06/22 10:18:27;;;;;;;10.38;8.68;;;;;;;30.01;49.07;101571.75;5048502;28;20034;-92
2023/06/22 10:20:52;;;;;;;11.80;8.73;;;;;;;30.15;48.49;101572.81;5014261;28;20044;-92
2023/06/22 10:23:19;;;;;;;10.52;8.63;;;;;;;30.25;48.12;101581.41;5009212;28;20029;-93
2023/06/22 10:25:44;;;;;;;13.40;9.35;;;;;;;30.12;49.06;101584.69;5011204;28;20085;-87
2023/06/22 10:28:10;;;;;;;11.93;8.60;;;;;;;30.16;47.84;101569.16;5022845;28;20493;-87
2023/06/22 10:30:35;;;;;;;13.55;9.50;;;;;;;30.23;47.89;101572.75;5015153;28;20030;-89
2023/06/22 10:33:01;;;;;;;10.82;8.25;;;;;;;30.31;47.72;101574.53;5031586;28;20021;-92
2023/06/22 10:35:26;;;;;;;14.60;8.10;;;;;;;30.17;48.38;101565.47;5044038;28;20040;-89
2023/06/22 10:37:52;;;;;;;13.40;8.68;;;;;;;30.25;48.23;101566.22;5023007;28;20090;-90
2023/06/22 10:40:18;;;;;;;9.77;7.97;;;;;;;30.33;47.91;101559.97;5008889;28;20049;-90
2023/06/22 10:42:44;;;;;;;9.68;8.40;;;;;;;30.31;48.00;101567.34;5039557;28;20056;-91
2023/06/22 10:45:09;;;;;;;10.82;8.05;;;;;;;30.26;47.43;101557.19;5028739;28;20025;-89
2023/06/22 10:47:35;;;;;;;9.15;7.82;;;;;;;30.18;47.55;101545.78;5029813;28;20559;-93
2023/06/22 10:50:01;;;;;;;12.65;8.57;;;;;;;30.18;47.35;101551.09;5034098;28;20021;-92
2023/06/22 10:52:26;;;;;;;11.40;9.10;;;;;;;30.23;46.40;101562.91;5030954;28;20029;-91
2023/06/22 10:54:55;;;;;;;14.90;9.60;;;;;;;30.26;46.75;101551.03;5010780;28;20476;-93
2023/06/22 10:57:21;;;;;;;13.05;7.80;;;;;;;30.24;46.47;101558.41;5011609;28;20087;-89
2023/06/22 10:59:47;;;;;;;10.82;8.45;;;;;;;30.05;46.49;101561.53;5005250;28;20042;-88
2023/06/22 11:02:12;;;;;;;12.07;7.95;;;;;;;29.91;46.97;101561.34;5022466;28;20088;-88
2023/06/22 11:04:38;;;;;;;10.45;7.63;;;;;;;29.86;46.77;101563.69;5026769;28;20746;-92
2023/06/22 11:07:04;;;;;;;15.27;8.20;;;;;;;29.64;48.04;101545.88;5017096;28;20030;-87
2023/06/22 11:09:30;;;;;;;10.50;7.97;;;;;;;29.79;48.38;101564.56;5025609;28;20047;-89
2023/06/22 11:11:55;;;;;;;9.65;8.23;;;;;;;29.67;47.33;101561.50;5029053;28;20033;-90
2023/06/22 11:14:22;;;;;;;9.13;7.57;;;;;;;29.58;48.21;101571.38;5029956;28;20056;-88